createdAt,value
2023-08-14T00:04:59.857Z,21.6
2023-08-14T00:10:05.938Z,21.6
2023-08-14T00:15:12.031Z,21.6
2023-08-14T00:20:18.147Z,21.5
2023-08-14T00:25:24.214Z,21.6
2023-08-14T00:30:30.299Z,21.6
2023-08-14T00:35:36.493Z,21.5
2023-08-14T00:40:42.483Z,21.5
2023-08-14T00:45:48.591Z,21.5
2023-08-14T00:50:54.657Z,21.5
2023-08-14T00:55:59.773Z,21.5
2023-08-14T01:01:05.862Z,21.5
2023-08-14T01:06:11.941Z,21.5
2023-08-14T01:11:18.040Z,21.5
2023-08-14T01:16:24.132Z,21.5
2023-08-14T01:21:30.212Z,21.5
2023-08-14T01:26:36.410Z,21.5
2023-08-14T01:31:42.389Z,21.5
2023-08-14T01:36:48.632Z,21.5
2023-08-14T01:41:54.642Z,21.5
2023-08-14T01:47:00.694Z,21.5
2023-08-14T01:52:06.742Z,21.5
2023-08-14T01:57:12.909Z,21.5
2023-08-14T02:02:18.934Z,21.5
2023-08-14T02:07:25.021Z,21.5
2023-08-14T02:12:31.112Z,21.5
2023-08-14T02:17:37.208Z,21.5
2023-08-14T02:22:43.292Z,21.5
2023-08-14T02:27:49.381Z,21.5
2023-08-14T02:32:55.644Z,21.5
2023-08-14T02:38:00.570Z,21.5
2023-08-14T02:43:06.670Z,21.5
2023-08-14T02:48:12.772Z,21.5
2023-08-14T02:53:18.846Z,21.5
2023-08-14T02:58:24.934Z,21.5
2023-08-14T03:03:31.021Z,21.4
2023-08-14T03:08:37.141Z,21.4
2023-08-14T03:13:43.186Z,21.4
2023-08-14T03:18:49.292Z,21.4
2023-08-14T03:23:55.371Z,21.4
2023-08-14T03:29:01.474Z,21.4
2023-08-14T03:34:07.564Z,21.4
2023-08-14T03:39:13.687Z,21.4
2023-08-14T03:44:19.743Z,21.4
2023-08-14T03:49:25.890Z,21.4
2023-08-14T03:54:31.938Z,21.4
2023-08-14T03:59:38.057Z,21.4
2023-08-14T04:04:44.107Z,21.4
2023-08-14T04:09:50.191Z,21.4
2023-08-14T04:14:56.282Z,21.4
2023-08-14T04:20:02.381Z,21.4
2023-08-14T04:25:08.459Z,21.4
2023-08-14T04:30:14.559Z,21.4
2023-08-14T04:35:20.729Z,21.4
2023-08-14T04:40:26.739Z,21.4
2023-08-14T04:45:32.825Z,21.4
2023-08-14T04:50:38.909Z,21.4
2023-08-14T04:55:44.992Z,21.4
2023-08-14T05:00:51.092Z,21.4
2023-08-14T05:05:57.201Z,21.4
2023-08-14T05:11:03.276Z,21.4
2023-08-14T05:16:09.369Z,21.4
2023-08-14T05:21:15.450Z,21.4
2023-08-14T05:26:21.537Z,21.4
2023-08-14T05:31:27.666Z,21.4
2023-08-14T05:36:33.720Z,21.4
2023-08-14T05:41:39.813Z,21.4
2023-08-14T05:46:45.967Z,21.4
2023-08-14T05:51:52.178Z,21.4
2023-08-14T05:56:58.318Z,21.4
2023-08-14T06:02:04.416Z,21.4
2023-08-14T06:07:10.558Z,21.4
2023-08-14T06:12:16.725Z,21.4
2023-08-14T06:17:22.864Z,21.4
2023-08-14T06:22:29.021Z,21.4
2023-08-14T06:27:35.181Z,21.4
2023-08-14T06:32:41.322Z,21.4
2023-08-14T06:37:47.478Z,21.4
2023-08-14T06:42:53.724Z,21.4
2023-08-14T06:47:59.783Z,21.4
2023-08-14T06:53:06.086Z,21.4
2023-08-14T06:58:12.307Z,21.4
2023-08-14T07:03:18.574Z,21.4
2023-08-14T07:08:24.840Z,21.4
2023-08-14T07:13:31.193Z,21.4
2023-08-14T07:18:37.394Z,21.4
2023-08-14T07:23:43.649Z,21.4
2023-08-14T07:28:48.925Z,21.5
2023-08-14T07:33:54.967Z,21.5
2023-08-14T07:39:01.056Z,21.5
2023-08-14T07:44:07.150Z,21.5
2023-08-14T07:49:13.242Z,21.5
2023-08-14T07:54:19.330Z,21.5
2023-08-14T07:59:25.441Z,21.5
2023-08-14T08:04:31.511Z,21.5
2023-08-14T08:09:37.629Z,21.5
2023-08-14T08:14:43.728Z,21.5
2023-08-14T08:19:49.774Z,21.5
2023-08-14T08:24:55.860Z,21.5
2023-08-14T08:30:01.969Z,21.5
2023-08-14T08:35:08.090Z,21.6
2023-08-14T08:40:14.135Z,21.6
2023-08-14T08:45:20.222Z,21.6
2023-08-14T08:50:26.437Z,21.6
2023-08-14T08:55:32.395Z,21.6
2023-08-14T09:00:38.500Z,21.6
2023-08-14T09:05:44.581Z,21.6
2023-08-14T09:10:50.692Z,21.6
2023-08-14T09:15:56.774Z,21.6
2023-08-14T09:21:02.861Z,21.6
2023-08-14T09:26:08.943Z,21.6
2023-08-14T09:31:15.341Z,21.7
2023-08-14T09:36:21.412Z,21.7
2023-08-14T09:41:27.338Z,21.7
2023-08-14T09:46:33.520Z,21.7
2023-08-14T09:51:39.638Z,21.7
2023-08-14T09:56:45.841Z,21.7
2023-08-14T10:01:51.945Z,21.7
2023-08-14T10:06:58.094Z,21.7
2023-08-14T10:12:04.239Z,21.7
2023-08-14T10:17:10.394Z,21.7
2023-08-14T10:22:16.565Z,21.7
2023-08-14T10:27:22.762Z,21.7
2023-08-14T10:32:28.852Z,21.8
2023-08-14T10:37:35.014Z,21.8
2023-08-14T10:42:41.275Z,21.8
2023-08-14T10:47:47.540Z,21.8
2023-08-14T10:52:53.801Z,21.8
2023-08-14T10:58:00.188Z,21.8
2023-08-14T11:03:06.333Z,21.8
2023-08-14T11:08:12.614Z,21.8
2023-08-14T11:13:18.869Z,21.8
2023-08-14T11:18:25.130Z,21.9
2023-08-14T11:23:31.392Z,21.9
2023-08-14T11:28:37.650Z,21.9
2023-08-14T11:33:43.925Z,21.9
2023-08-14T11:38:50.184Z,21.9
2023-08-14T11:43:56.486Z,21.9
2023-08-14T11:49:02.918Z,22
2023-08-14T11:54:09.404Z,22
2023-08-14T11:59:15.864Z,22
2023-08-14T12:04:22.345Z,22
2023-08-14T12:09:28.819Z,22
2023-08-14T12:14:35.273Z,22
2023-08-14T12:19:41.759Z,22
2023-08-14T12:24:48.228Z,22
2023-08-14T12:29:54.695Z,22
2023-08-14T12:35:01.157Z,22.1
2023-08-14T12:40:07.681Z,22.1
2023-08-14T12:45:14.106Z,22.1
2023-08-14T12:50:20.575Z,22.1
2023-08-14T12:55:27.583Z,22.1
2023-08-14T13:00:34.588Z,22.1
2023-08-14T13:05:41.595Z,22.2
2023-08-14T13:10:48.603Z,22.2
2023-08-14T13:15:55.599Z,22.2
2023-08-14T13:21:02.619Z,22.2
2023-08-14T13:26:09.618Z,22.2
2023-08-14T13:31:16.624Z,22.2
2023-08-14T13:36:23.631Z,22.2
2023-08-14T13:41:30.626Z,22.2
2023-08-14T13:46:37.644Z,22.3
2023-08-14T13:51:44.649Z,22.2
2023-08-14T13:56:51.657Z,22.3
2023-08-14T14:01:57.439Z,22.2
2023-08-14T14:07:03.581Z,22.3
2023-08-14T14:12:09.744Z,22.3
2023-08-14T14:17:15.890Z,22.3
2023-08-14T14:22:22.044Z,22.3
2023-08-14T14:27:28.198Z,22.3
2023-08-14T14:32:34.337Z,22.3
2023-08-14T14:37:40.511Z,22.3
2023-08-14T14:42:46.653Z,22.3
2023-08-14T14:47:52.807Z,22.2
2023-08-14T14:52:58.962Z,22.3
2023-08-14T14:58:05.108Z,22.2
2023-08-14T15:03:11.935Z,22.2
2023-08-14T15:08:17.408Z,22.2
2023-08-14T15:13:23.564Z,22.3
2023-08-14T15:18:29.708Z,22.2
2023-08-14T15:23:35.860Z,22.2
2023-08-14T15:28:42.016Z,22.2
2023-08-14T15:33:48.175Z,22.2
2023-08-14T15:38:54.347Z,22.2
2023-08-14T15:44:00.472Z,22.2
2023-08-14T15:49:06.617Z,22.2
2023-08-14T15:54:12.772Z,22.2
2023-08-14T15:59:18.907Z,22.2
2023-08-14T16:04:25.088Z,22.2
2023-08-14T16:09:30.235Z,22.2
2023-08-14T16:14:36.330Z,22.2
2023-08-14T16:19:42.449Z,22.2
2023-08-14T16:24:48.505Z,22.2
2023-08-14T16:29:54.599Z,22.2
2023-08-14T16:35:00.682Z,22.2
2023-08-14T16:40:06.777Z,22.2
2023-08-14T16:45:12.852Z,22.2
2023-08-14T16:50:18.960Z,22.3
2023-08-14T16:55:24.064Z,22.3
2023-08-14T17:00:30.146Z,22.2
2023-08-14T17:05:36.240Z,22.2
2023-08-14T17:10:42.349Z,22.2
2023-08-14T17:15:48.602Z,22.2
2023-08-14T17:20:54.745Z,22.2
2023-08-14T17:26:00.602Z,22.2
2023-08-14T17:31:06.882Z,22.2
2023-08-14T17:36:13.073Z,22.2
2023-08-14T17:41:19.275Z,22.3
2023-08-14T17:46:25.094Z,22.2
2023-08-14T17:51:31.404Z,22.2
2023-08-14T17:56:37.336Z,22.2
2023-08-14T18:01:43.225Z,22.2
2023-08-14T18:06:49.630Z,22.2
2023-08-14T18:11:55.695Z,22.2
2023-08-14T18:17:01.586Z,22.2
2023-08-14T18:22:07.734Z,22.2
2023-08-14T18:27:13.925Z,22.2
2023-08-14T18:32:19.852Z,22.2
2023-08-14T18:37:24.880Z,22.2
2023-08-14T18:42:30.976Z,22.2
2023-08-14T18:47:37.057Z,22.2
2023-08-14T18:52:43.162Z,22.2
2023-08-14T18:57:49.237Z,22.2
2023-08-14T19:02:55.332Z,22.2
2023-08-14T19:08:01.420Z,22.2
2023-08-14T19:13:07.525Z,22.2
2023-08-14T19:18:13.608Z,22.2
2023-08-14T19:23:19.699Z,22.2
2023-08-14T19:28:25.788Z,22.2
2023-08-14T19:33:31.875Z,22.2
2023-08-14T19:38:37.962Z,22.1
2023-08-14T19:43:44.067Z,22.1
2023-08-14T19:48:50.141Z,22.1
2023-08-14T19:53:56.231Z,22.1
2023-08-14T19:59:02.337Z,22.1
2023-08-14T20:04:08.415Z,22.1
2023-08-14T20:09:14.504Z,22.1
2023-08-14T20:14:20.590Z,22.1
2023-08-14T20:19:26.673Z,22.1
2023-08-14T20:24:32.771Z,22.1
2023-08-14T20:29:38.861Z,22.1
2023-08-14T20:34:44.945Z,22.1
2023-08-14T20:39:51.036Z,22.1
2023-08-14T20:44:57.195Z,22.1
2023-08-14T20:50:03.352Z,22.1
2023-08-14T20:55:09.492Z,22.1
2023-08-14T21:00:15.658Z,22.1
2023-08-14T21:05:21.808Z,22.1
2023-08-14T21:10:27.963Z,22.1
2023-08-14T21:15:34.111Z,22.1
2023-08-14T21:20:40.266Z,22.1
2023-08-14T21:25:46.416Z,22.1
2023-08-14T21:30:52.568Z,22.1
2023-08-14T21:35:58.718Z,22.1
2023-08-14T21:41:04.879Z,22.1
2023-08-14T21:46:11.034Z,22.1
2023-08-14T21:51:17.306Z,22
2023-08-14T21:56:23.552Z,22.1
2023-08-14T22:01:29.820Z,22
2023-08-14T22:06:36.079Z,22
2023-08-14T22:11:42.331Z,22
2023-08-14T22:16:48.598Z,22
2023-08-14T22:21:54.864Z,22
2023-08-14T22:27:01.118Z,22
2023-08-14T22:32:07.405Z,22
2023-08-14T22:37:13.665Z,22
2023-08-14T22:42:19.938Z,22
2023-08-14T22:47:26.190Z,22
2023-08-14T22:52:32.454Z,22
2023-08-14T22:57:38.935Z,22
2023-08-14T23:02:45.417Z,22
2023-08-14T23:07:51.878Z,22
2023-08-14T23:12:58.344Z,22
2023-08-14T23:18:04.809Z,22
2023-08-14T23:23:11.286Z,22
2023-08-14T23:28:17.756Z,22
2023-08-14T23:33:24.229Z,22
2023-08-14T23:38:30.696Z,22
2023-08-14T23:43:36.095Z,22
2023-08-14T23:48:42.192Z,22
2023-08-14T23:53:48.277Z,22
2023-08-14T23:58:54.363Z,22
